KIAB

Mc Connell AFB Airport

Wichita, Kansas, USA
METAR KIAB 152256Z AUTO 23005KT 10SM CLR 12/04 A2996 RMK AO2 SLP156 T01240039
Observed Flight Rules
Nov-15 @ 22:56 UTC (32 minutes ago) Visual Flight Rules
Wind Visibility Clouds
230° at 5 knots 10 miles
  • Clear skies
Temperatures Readings
Current 12°C / 54°F
Dewpoint 4°C / 39°F
Humidity 58%
Altimeter 29.96" Hg
Pressure 1015.6 hPa
Elevation 418
METAR KIAB 152256Z AUTO 23005KT 10SM CLR 12/04 A2996 RMK AO2 SLP156 T01240039
Observed Flight Rules
Nov-15 @ 22:56 UTC
(32 minutes ago)
VFR
Wind Visibility
230° at 5 knots 10 miles
Clouds
  • Clear skies
Temperature Dewpoint
12°C / 54°F 4°C / 39°F
Humidity Altimeter Pressure
58% 29.96" Hg 1015.6 hPa